Time;durP1;ratioP1;P1;durP2;ratioP2;P2;SDS_P1;SDS_P2;PMS_P1;PMS_P2;Temp;Humidity;BMP_temperature;BMP_pressure;BME280_temperature;BME280_humidity;BME280_pressure;Samples;Min_cycle;Max_cycle;Signal;HPM_P1;HPM_P2
2023/09/26 00:03:51;;;;;;;11.55;7.55;;;6.90;99.90;;;;;;8397236;28;20559;-79
2023/09/26 00:07:52;;;;;;;10.00;6.35;;;6.90;99.90;;;;;;8397191;28;20124;-78
2023/09/26 00:11:52;;;;;;;8.70;5.75;;;7.10;99.90;;;;;;8372885;28;20420;-78
2023/09/26 00:15:53;;;;;;;8.45;5.82;;;7.00;99.90;;;;;;8372471;28;20035;-78
2023/09/26 00:19:54;;;;;;;6.80;5.47;;;6.80;99.90;;;;;;8379383;28;20024;-77
2023/09/26 00:23:54;;;;;;;7.45;5.72;;;6.40;99.90;;;;;;8378338;28;20020;-77
2023/09/26 00:27:55;;;;;;;9.80;6.53;;;6.30;99.90;;;;;;8372201;28;20036;-78
2023/09/26 00:31:55;;;;;;;9.73;6.78;;;6.20;99.90;;;;;;8396102;28;20064;-78
2023/09/26 00:35:56;;;;;;;11.23;7.78;;;6.20;99.90;;;;;;8374260;28;20048;-79
2023/09/26 00:39:57;;;;;;;9.63;7.55;;;6.10;99.90;;;;;;8396125;28;20021;-79
2023/09/26 00:43:57;;;;;;;8.30;6.82;;;6.10;99.90;;;;;;8366120;28;20106;-79
2023/09/26 00:47:58;;;;;;;11.07;7.53;;;6.00;99.90;;;;;;8390014;28;20037;-79
2023/09/26 00:52:01;;;;;;;13.35;8.02;;;6.10;99.90;;;;;;8395858;28;20052;-79
2023/09/26 00:56:02;;;;;;;15.80;7.72;;;6.10;99.90;;;;;;8378191;28;20040;-78
2023/09/26 01:00:04;;;;;;;11.15;6.95;;;6.00;99.90;;;;;;8377827;28;20435;-78
2023/09/26 01:04:05;;;;;;;10.00;7.65;;;6.00;99.90;;;;;;8392433;28;20028;-78
2023/09/26 01:08:06;;;;;;;14.68;8.73;;;5.80;99.90;;;;;;8377424;28;20024;-78
2023/09/26 01:12:08;;;;;;;13.77;9.30;;;5.90;99.90;;;;;;8376082;28;20066;-78
2023/09/26 01:16:15;;;;;;;14.60;8.65;;;6.00;99.90;;;;;;8395945;28;20039;-77
2023/09/26 01:20:19;;;;;;;12.63;8.35;;;6.00;99.90;;;;;;8378149;28;20425;-78
2023/09/26 01:24:19;;;;;;;15.60;9.05;;;5.90;99.90;;;;;;8369851;28;20112;-79
2023/09/26 01:28:20;;;;;;;14.23;10.40;;;5.90;99.90;;;;;;8374537;28;20013;-78
2023/09/26 01:32:20;;;;;;;13.18;9.35;;;5.90;99.90;;;;;;8376318;28;20020;-78
2023/09/26 01:36:22;;;;;;;15.63;9.52;;;5.90;99.90;;;;;;8374142;28;20028;-78
2023/09/26 01:40:22;;;;;;;12.48;9.25;;;5.90;99.90;;;;;;8376180;28;20020;-77
2023/09/26 01:44:23;;;;;;;12.63;8.65;;;5.80;99.90;;;;;;8375678;28;20021;-77
2023/09/26 01:48:23;;;;;;;16.90;9.40;;;5.70;99.90;;;;;;8368582;28;20044;-77
2023/09/26 01:52:24;;;;;;;18.38;10.80;;;5.70;99.90;;;;;;8394517;28;20456;-78
2023/09/26 01:56:24;;;;;;;16.10;10.55;;;5.80;99.90;;;;;;8376244;28;20020;-78
2023/09/26 02:00:25;;;;;;;19.15;11.65;;;5.80;99.90;;;;;;8374027;28;20059;-79
2023/09/26 02:04:25;;;;;;;14.75;9.98;;;5.80;99.90;;;;;;8373392;28;20046;-78
2023/09/26 02:08:26;;;;;;;18.00;9.90;;;5.90;99.90;;;;;;8394208;28;20030;-79
2023/09/26 02:12:27;;;;;;;14.88;9.35;;;6.00;99.90;;;;;;8374837;28;20648;-79
2023/09/26 02:16:27;;;;;;;17.33;10.18;;;6.00;99.90;;;;;;8373185;28;20024;-77
2023/09/26 02:20:28;;;;;;;17.42;11.15;;;6.00;99.90;;;;;;8375048;28;20023;-79
2023/09/26 02:24:29;;;;;;;17.27;10.18;;;6.00;99.90;;;;;;8375652;28;20024;-78
2023/09/26 02:28:29;;;;;;;15.18;9.35;;;6.00;99.90;;;;;;8371675;28;20020;-78
2023/09/26 02:32:32;;;;;;;16.65;9.90;;;6.00;99.90;;;;;;8376288;28;20029;-79
2023/09/26 02:36:33;;;;;;;15.80;10.32;;;6.00;99.90;;;;;;8395775;28;20048;-80
2023/09/26 02:40:33;;;;;;;21.60;11.82;;;6.00;99.90;;;;;;8378441;28;20024;-80
2023/09/26 02:44:34;;;;;;;37.15;12.38;;;6.20;99.90;;;;;;8375211;28;20028;-80
2023/09/26 02:48:34;;;;;;;32.00;13.20;;;6.50;99.90;;;;;;8376747;28;20035;-80
2023/09/26 02:52:36;;;;;;;38.10;12.52;;;6.50;99.90;;;;;;8395876;28;20029;-81
2023/09/26 02:56:37;;;;;;;41.63;16.25;;;6.60;99.90;;;;;;8375927;28;20035;-80
2023/09/26 03:00:41;;;;;;;51.53;14.30;;;6.60;99.90;;;;;;8396252;28;20028;-80
2023/09/26 03:04:47;;;;;;;42.13;14.52;;;6.60;99.90;;;;;;8377432;28;20082;-81
2023/09/26 03:08:47;;;;;;;83.80;16.92;;;6.60;99.90;;;;;;8363227;28;20119;-81
2023/09/26 03:12:48;;;;;;;74.07;17.58;;;6.60;99.90;;;;;;8369586;28;20118;-81
2023/09/26 03:16:49;;;;;;;106.30;16.90;;;6.70;99.90;;;;;;8367159;28;20033;-80
2023/09/26 03:20:49;;;;;;;180.13;18.77;;;6.80;99.90;;;;;;8370519;28;20079;-81
2023/09/26 03:24:50;;;;;;;55.63;14.70;;;6.90;99.90;;;;;;8366857;28;20023;-80
2023/09/26 03:28:50;;;;;;;33.17;12.40;;;7.20;99.90;;;;;;8377970;28;20037;-80
2023/09/26 03:32:51;;;;;;;38.78;12.82;;;7.10;99.90;;;;;;8373288;28;20027;-82
2023/09/26 03:36:51;;;;;;;30.25;12.23;;;6.90;99.90;;;;;;8396265;28;20043;-83
2023/09/26 03:40:56;;;;;;;32.47;12.60;;;6.90;99.90;;;;;;8379968;28;20039;-81
2023/09/26 03:44:57;;;;;;;42.00;12.75;;;6.80;99.90;;;;;;8376242;28;20029;-82
2023/09/26 03:48:58;;;;;;;39.72;11.70;;;6.80;99.90;;;;;;8406913;28;20551;-81
2023/09/26 03:52:59;;;;;;;75.20;13.50;;;6.90;99.90;;;;;;8377402;28;20066;-80
2023/09/26 03:57:00;;;;;;;81.80;13.32;;;7.10;99.90;;;;;;8401168;28;20043;-80
2023/09/26 04:01:16;;;;;;;42.90;12.80;;;7.00;99.90;;;;;;8377293;28;20025;-81
2023/09/26 04:05:17;;;;;;;84.93;13.48;;;7.00;99.90;;;;;;8395671;28;20024;-80
2023/09/26 04:09:17;;;;;;;36.78;11.77;;;7.20;99.90;;;;;;8380160;28;20067;-81
2023/09/26 04:13:18;;;;;;;47.22;12.77;;;7.20;99.90;;;;;;8386247;28;20388;-81
2023/09/26 04:17:19;;;;;;;96.00;15.32;;;7.00;99.90;;;;;;8380953;28;20087;-80
2023/09/26 04:21:19;;;;;;;59.08;13.15;;;6.90;99.90;;;;;;8399766;28;20024;-80
2023/09/26 04:25:20;;;;;;;68.10;14.00;;;7.10;99.90;;;;;;8370044;28;20060;-79
2023/09/26 04:29:20;;;;;;;61.65;13.52;;;7.10;99.90;;;;;;8365906;28;20391;-78
2023/09/26 04:33:21;;;;;;;82.45;15.40;;;7.10;99.90;;;;;;8379715;28;20028;-79
2023/09/26 04:37:22;;;;;;;81.35;15.88;;;7.10;99.90;;;;;;8395094;28;20107;-78
2023/09/26 04:41:22;;;;;;;47.08;16.35;;;7.00;99.90;;;;;;8391088;28;20035;-77
2023/09/26 04:45:23;;;;;;;67.88;16.60;;;7.00;99.90;;;;;;8376463;28;20020;-78
2023/09/26 04:49:23;;;;;;;48.92;15.13;;;6.90;99.90;;;;;;8374291;28;20035;-78
2023/09/26 04:53:24;;;;;;;68.45;14.60;;;6.90;99.90;;;;;;8399692;28;20518;-77
2023/09/26 04:57:25;;;;;;;66.50;15.73;;;6.90;99.90;;;;;;8375235;28;20134;-78
2023/09/26 05:01:26;;;;;;;31.05;14.75;;;6.90;99.90;;;;;;8396893;28;20074;-78
2023/09/26 05:05:28;;;;;;;34.75;15.77;;;6.90;99.90;;;;;;8381637;28;20078;-77
2023/09/26 05:09:28;;;;;;;36.30;14.82;;;6.80;99.90;;;;;;8380127;28;20028;-78
2023/09/26 05:13:29;;;;;;;40.08;15.55;;;6.80;99.90;;;;;;8374618;28;20063;-77
2023/09/26 05:17:30;;;;;;;63.38;17.05;;;6.90;99.90;;;;;;8374494;28;20028;-78
2023/09/26 05:21:32;;;;;;;97.20;17.63;;;6.90;99.90;;;;;;8377085;28;20097;-78
2023/09/26 05:25:33;;;;;;;36.45;16.45;;;7.10;99.90;;;;;;8394482;28;20070;-78
2023/09/26 05:29:35;;;;;;;25.67;15.88;;;7.10;99.90;;;;;;8394352;28;20021;-78
2023/09/26 05:33:35;;;;;;;28.23;15.25;;;7.20;99.90;;;;;;8374818;28;20024;-78
2023/09/26 05:37:37;;;;;;;72.18;15.75;;;7.30;99.90;;;;;;8376480;28;20400;-78
2023/09/26 05:41:38;;;;;;;54.80;14.52;;;7.50;99.90;;;;;;8371298;28;20012;-78
2023/09/26 05:45:38;;;;;;;73.68;14.85;;;7.60;99.90;;;;;;8371802;28;20027;-78
2023/09/26 05:49:39;;;;;;;30.77;13.70;;;7.50;99.90;;;;;;8376833;28;20051;-78
2023/09/26 05:53:39;;;;;;;41.63;15.20;;;7.50;99.90;;;;;;8376343;28;20024;-78
2023/09/26 05:57:40;;;;;;;32.03;13.55;;;7.60;99.90;;;;;;8393979;28;20028;-76
2023/09/26 06:01:40;;;;;;;31.60;14.13;;;7.70;99.90;;;;;;8369577;28;20032;-77
2023/09/26 06:05:42;;;;;;;49.72;15.23;;;7.70;99.90;;;;;;8392557;28;20592;-78
2023/09/26 06:09:43;;;;;;;31.33;14.20;;;7.90;99.90;;;;;;8374579;28;20025;-78
2023/09/26 06:13:44;;;;;;;48.83;14.30;;;7.90;99.90;;;;;;8373314;28;20024;-77
2023/09/26 06:17:44;;;;;;;54.78;13.77;;;7.90;99.90;;;;;;8393051;28;20028;-78
2023/09/26 06:21:45;;;;;;;41.88;13.82;;;8.10;99.90;;;;;;8375579;28;20024;-77
2023/09/26 06:25:45;;;;;;;33.30;12.23;;;8.20;99.90;;;;;;8375095;28;20016;-78
2023/09/26 06:29:46;;;;;;;24.63;13.05;;;8.40;99.90;;;;;;8373406;28;20032;-77
2023/09/26 06:33:46;;;;;;;36.30;13.75;;;8.50;99.90;;;;;;8374525;28;20027;-76
2023/09/26 06:37:47;;;;;;;61.80;15.13;;;8.60;99.90;;;;;;8393034;28;20029;-77
2023/09/26 06:41:47;;;;;;;100.43;14.75;;;8.60;99.90;;;;;;8392058;28;20064;-78
2023/09/26 06:45:48;;;;;;;60.60;14.52;;;8.60;99.90;;;;;;8370356;28;20029;-76
2023/09/26 06:49:48;;;;;;;28.00;14.55;;;8.80;99.90;;;;;;8392772;28;20032;-78
2023/09/26 06:53:49;;;;;;;36.03;13.52;;;9.00;99.90;;;;;;8374148;28;20048;-77
2023/09/26 06:57:49;;;;;;;52.70;13.80;;;9.00;99.90;;;;;;8392290;28;20449;-78
2023/09/26 07:01:50;;;;;;;45.47;14.60;;;9.00;99.90;;;;;;8374089;28;20016;-78
2023/09/26 07:05:51;;;;;;;178.27;16.30;;;9.20;99.90;;;;;;8374288;28;20020;-76
2023/09/26 07:09:51;;;;;;;91.95;16.50;;;9.40;99.90;;;;;;8379990;28;20600;-78
2023/09/26 07:13:52;;;;;;;64.65;13.52;;;9.80;99.90;;;;;;8371958;28;20123;-77
2023/09/26 07:17:52;;;;;;;95.07;15.30;;;10.10;99.90;;;;;;8368871;28;20024;-78
2023/09/26 07:21:53;;;;;;;133.27;14.65;;;10.30;99.90;;;;;;8380709;28;20021;-78
2023/09/26 07:26:12;;;;;;;67.07;15.27;;;10.60;99.90;;;;;;8377579;28;20098;-78
2023/09/26 07:30:12;;;;;;;71.10;13.65;;;10.90;99.90;;;;;;8398009;28;20024;-78
2023/09/26 07:34:13;;;;;;;30.73;13.57;;;10.90;99.90;;;;;;8380326;28;20051;-78
2023/09/26 07:38:13;;;;;;;16.80;12.80;;;11.00;99.90;;;;;;8379196;28;20028;-78
2023/09/26 07:42:14;;;;;;;19.90;12.57;;;11.10;99.90;;;;;;8397901;28;20032;-77
2023/09/26 07:46:15;;;;;;;15.13;13.02;;;11.10;99.90;;;;;;8379634;28;20021;-78
2023/09/26 07:50:15;;;;;;;17.50;14.57;;;10.90;99.90;;;;;;8380102;28;20021;-78
2023/09/26 07:54:16;;;;;;;21.48;17.08;;;10.60;99.90;;;;;;8379615;28;20016;-78
2023/09/26 07:58:17;;;;;;;19.67;16.50;;;10.80;99.90;;;;;;8379987;28;20399;-78
2023/09/26 08:02:18;;;;;;;22.23;18.08;;;11.20;99.90;;;;;;8397773;28;20013;-77
2023/09/26 08:06:18;;;;;;;22.65;17.98;;;11.20;99.90;;;;;;8379377;28;20451;-77
2023/09/26 08:10:19;;;;;;;23.92;18.88;;;11.50;99.90;;;;;;8397138;28;20063;-78
2023/09/26 08:14:19;;;;;;;25.23;18.55;;;11.70;99.90;;;;;;8377758;28;20024;-79
2023/09/26 08:18:20;;;;;;;25.50;20.17;;;11.80;99.90;;;;;;8370202;28;20524;-79
2023/09/26 08:22:21;;;;;;;25.75;20.75;;;11.90;99.90;;;;;;8379578;28;20024;-78
2023/09/26 08:26:21;;;;;;;27.23;20.88;;;12.50;99.90;;;;;;8379198;28;20020;-78
2023/09/26 08:30:22;;;;;;;31.75;22.63;;;12.40;99.90;;;;;;8375855;28;20024;-78
2023/09/26 08:34:22;;;;;;;31.60;23.48;;;12.70;99.90;;;;;;8397568;28;20415;-78
2023/09/26 08:38:23;;;;;;;32.50;24.45;;;13.00;99.90;;;;;;8379641;28;20021;-79
2023/09/26 08:42:27;;;;;;;28.92;21.77;;;12.90;99.90;;;;;;8376817;28;20054;-79
2023/09/26 08:46:28;;;;;;;27.63;21.42;;;13.10;99.90;;;;;;8375363;28;20389;-79
2023/09/26 08:50:29;;;;;;;24.20;19.27;;;13.40;99.90;;;;;;8379862;28;20078;-79
2023/09/26 08:54:29;;;;;;;29.38;22.90;;;13.50;99.90;;;;;;8377137;28;20020;-79
2023/09/26 08:58:31;;;;;;;25.73;20.15;;;13.80;99.90;;;;;;8397949;28;20032;-79
2023/09/26 09:02:32;;;;;;;23.20;18.25;;;13.90;99.90;;;;;;8388371;28;20049;-77
2023/09/26 09:06:32;;;;;;;19.80;15.30;;;14.00;99.90;;;;;;8401514;28;20032;-77
2023/09/26 09:10:48;;;;;;;18.35;15.07;;;14.70;99.90;;;;;;8375637;28;20052;-78
2023/09/26 09:14:49;;;;;;;14.60;12.05;;;15.20;99.90;;;;;;8375167;28;20055;-78
2023/09/26 09:18:51;;;;;;;17.13;14.10;;;15.40;99.90;;;;;;8371566;28;20024;-78
2023/09/26 09:23:02;;;;;;;16.38;12.02;;;15.80;99.90;;;;;;8376758;28;20493;-78
2023/09/26 09:27:03;;;;;;;13.80;10.95;;;17.00;99.90;;;;;;8370081;28;20391;-77
2023/09/26 09:31:03;;;;;;;9.25;7.72;;;17.40;99.90;;;;;;8369878;28;20036;-79
2023/09/26 09:35:04;;;;;;;10.15;7.38;;;18.10;99.90;;;;;;8369610;28;20017;-78
2023/09/26 09:39:09;;;;;;;7.80;6.03;;;18.70;99.90;;;;;;8375882;28;20385;-78
2023/09/26 09:43:09;;;;;;;6.95;6.15;;;18.90;99.90;;;;;;8393919;28;20035;-79
2023/09/26 09:47:13;;;;;;;7.90;5.70;;;19.50;99.90;;;;;;8370812;28;20033;-79
2023/09/26 09:51:15;;;;;;;7.32;5.80;;;19.80;99.90;;;;;;8371612;28;20020;-80
2023/09/26 09:55:20;;;;;;;6.18;5.53;;;20.10;99.90;;;;;;8375829;28;20107;-80
2023/09/26 09:59:24;;;;;;;6.15;5.55;;;20.60;99.90;;;;;;8372003;28;20035;-79
2023/09/26 10:03:26;;;;;;;7.10;5.47;;;20.70;99.90;;;;;;8372705;28;20043;-79
2023/09/26 10:07:29;;;;;;;6.63;5.93;;;21.30;99.90;;;;;;8392898;28;20021;-78
2023/09/26 10:11:31;;;;;;;8.52;5.93;;;22.20;99.90;;;;;;8370339;28;20120;-79
2023/09/26 10:15:33;;;;;;;7.35;4.85;;;22.60;99.90;;;;;;8394591;28;20025;-80
2023/09/26 10:19:34;;;;;;;9.77;5.47;;;23.40;99.90;;;;;;8374680;28;20074;-79
2023/09/26 10:23:35;;;;;;;6.50;4.85;;;23.80;99.90;;;;;;8375524;28;20050;-78
2023/09/26 10:27:35;;;;;;;7.88;5.35;;;23.60;99.90;;;;;;8373199;28;20031;-79
2023/09/26 10:31:38;;;;;;;6.85;5.35;;;22.50;99.90;;;;;;8374645;28;20108;-78
2023/09/26 10:35:43;;;;;;;8.45;6.60;;;21.80;99.90;;;;;;8393039;28;20078;-78
2023/09/26 10:39:44;;;;;;;7.07;6.38;;;21.80;99.90;;;;;;8373553;28;20029;-79
2023/09/26 10:43:45;;;;;;;6.15;5.20;;;22.00;99.90;;;;;;8380817;28;20036;-79
2023/09/26 10:47:46;;;;;;;10.35;4.78;;;22.60;99.90;;;;;;8400161;28;20035;-79
2023/09/26 10:51:47;;;;;;;5.65;4.60;;;23.00;99.90;;;;;;8381610;28;20404;-79
2023/09/26 10:55:47;;;;;;;6.47;5.47;;;23.70;99.90;;;;;;8380860;28;20111;-79
2023/09/26 10:59:49;;;;;;;7.60;5.65;;;24.30;99.90;;;;;;8398539;28;20035;-79
2023/09/26 11:03:49;;;;;;;6.57;5.40;;;24.60;99.90;;;;;;8379520;28;20121;-80
2023/09/26 11:07:54;;;;;;;8.18;5.93;;;26.20;99.90;;;;;;8381026;28;20025;-79
2023/09/26 11:11:56;;;;;;;6.10;4.90;;;26.30;99.90;;;;;;8397670;28;20031;-79
2023/09/26 11:15:57;;;;;;;7.13;5.30;;;25.50;99.90;;;;;;8398530;28;20025;-78
2023/09/26 11:19:58;;;;;;;5.95;5.00;;;25.70;99.90;;;;;;8397986;28;20059;-80
2023/09/26 11:23:59;;;;;;;6.03;5.30;;;25.40;99.90;;;;;;8398311;28;20021;-79
2023/09/26 11:28:01;;;;;;;6.57;5.15;;;25.10;99.90;;;;;;8374185;28;20723;-80
2023/09/26 11:32:03;;;;;;;7.05;5.80;;;26.00;99.90;;;;;;8398813;28;20024;-79
2023/09/26 11:36:04;;;;;;;8.65;5.30;;;26.50;99.90;;;;;;8398990;28;20025;-79
2023/09/26 11:40:12;;;;;;;6.70;5.95;;;25.30;99.90;;;;;;8375101;28;20032;-79
2023/09/26 11:44:14;;;;;;;6.57;5.18;;;25.90;99.90;;;;;;8380964;28;20174;-79
2023/09/26 11:48:14;;;;;;;5.32;4.80;;;25.80;99.90;;;;;;8375794;28;20035;-78
2023/09/26 11:52:16;;;;;;;5.70;5.10;;;26.40;99.90;;;;;;8375794;28;20024;-80
2023/09/26 11:56:16;;;;;;;5.60;4.55;;;27.00;99.90;;;;;;8370854;28;20028;-79
2023/09/26 12:00:18;;;;;;;6.65;5.20;;;26.10;99.90;;;;;;8397188;28;20043;-80
2023/09/26 12:04:21;;;;;;;5.07;3.90;;;26.90;99.90;;;;;;8379360;28;20107;-80
2023/09/26 12:08:22;;;;;;;4.72;3.90;;;28.20;99.90;;;;;;8380178;28;20025;-80
2023/09/26 12:12:22;;;;;;;6.65;4.03;;;28.90;99.90;;;;;;8379563;28;20031;-81
2023/09/26 12:16:23;;;;;;;5.72;3.97;;;29.60;98.40;;;;;;8379439;28;20115;-80
2023/09/26 12:20:26;;;;;;;4.18;3.78;;;30.90;96.70;;;;;;8378960;28;20024;-80
2023/09/26 12:24:27;;;;;;;5.00;4.13;;;30.60;97.00;;;;;;8380221;28;20024;-81
2023/09/26 12:28:27;;;;;;;7.18;4.00;;;31.80;92.20;;;;;;8398897;28;20020;-80
2023/09/26 12:32:28;;;;;;;4.45;3.97;;;30.30;93.30;;;;;;8375714;28;20024;-79
2023/09/26 12:36:29;;;;;;;5.75;4.35;;;30.60;92.70;;;;;;8376941;28;20397;-80
2023/09/26 12:40:30;;;;;;;5.20;3.80;;;28.30;98.30;;;;;;8379941;28;20031;-79
2023/09/26 12:44:34;;;;;;;7.07;3.85;;;27.00;99.10;;;;;;8376561;28;20028;-80
2023/09/26 12:48:35;;;;;;;5.30;2.85;;;28.50;98.70;;;;;;8378916;28;20024;-80
2023/09/26 12:52:36;;;;;;;5.18;3.42;;;29.80;95.20;;;;;;8377046;28;20023;-79
2023/09/26 12:56:36;;;;;;;4.25;3.20;;;31.20;91.90;;;;;;8396232;28;20028;-80
2023/09/26 13:00:37;;;;;;;3.55;3.00;;;30.30;95.20;;;;;;8364992;28;20075;-80
2023/09/26 13:04:37;;;;;;;3.67;2.30;;;31.80;91.50;;;;;;8377169;28;20052;-81
2023/09/26 13:08:38;;;;;;;4.57;3.80;;;33.40;86.90;;;;;;8377849;28;20447;-79
2023/09/26 13:12:39;;;;;;;6.38;2.95;;;29.90;91.80;;;;;;8397609;28;20028;-80
2023/09/26 13:16:39;;;;;;;4.95;2.97;;;29.50;92.70;;;;;;8378813;28;20512;-80
2023/09/26 13:20:40;;;;;;;4.75;3.03;;;29.30;93.40;;;;;;8378024;28;20027;-79
2023/09/26 13:24:41;;;;;;;3.17;2.72;;;31.10;91.60;;;;;;8377683;28;20031;-80
2023/09/26 13:28:42;;;;;;;5.32;3.20;;;30.40;91.10;;;;;;8397099;28;20063;-80
2023/09/26 13:32:42;;;;;;;3.90;2.55;;;29.40;92.30;;;;;;8380488;28;20036;-80
2023/09/26 13:36:43;;;;;;;4.50;2.83;;;31.20;91.50;;;;;;8373146;28;20028;-81
2023/09/26 13:40:44;;;;;;;3.85;2.90;;;32.70;84.20;;;;;;8383609;28;20111;-80
2023/09/26 13:44:45;;;;;;;4.68;2.47;;;33.70;81.40;;;;;;8408256;28;20017;-80
2023/09/26 13:48:45;;;;;;;4.63;2.60;;;34.60;72.50;;;;;;8378548;28;20051;-80
2023/09/26 13:52:46;;;;;;;4.82;2.88;;;33.90;73.50;;;;;;8376507;28;20500;-81
2023/09/26 13:56:46;;;;;;;2.95;2.38;;;34.00;74.20;;;;;;8375894;28;20040;-79
2023/09/26 14:00:47;;;;;;;4.15;3.08;;;32.90;79.90;;;;;;8376567;28;20760;-79
2023/09/26 14:04:47;;;;;;;2.70;2.47;;;31.20;79.80;;;;;;8376727;28;20078;-80
2023/09/26 14:08:48;;;;;;;5.13;2.88;;;32.40;81.50;;;;;;8376831;28;20115;-80
2023/09/26 14:12:48;;;;;;;5.93;2.90;;;30.70;84.70;;;;;;8394774;28;20032;-80
2023/09/26 14:16:49;;;;;;;6.07;2.83;;;30.60;84.50;;;;;;8371170;28;20028;-79
2023/09/26 14:20:50;;;;;;;3.17;2.70;;;31.70;80.80;;;;;;8394604;28;20157;-80
2023/09/26 14:24:51;;;;;;;6.32;3.20;;;33.60;78.70;;;;;;8378300;28;20028;-80
2023/09/26 14:28:54;;;;;;;3.30;2.60;;;32.60;79.60;;;;;;8394923;28;20059;-79
2023/09/26 14:32:54;;;;;;;4.63;2.85;;;33.00;76.60;;;;;;8371069;28;20028;-80
2023/09/26 14:36:55;;;;;;;8.00;2.90;;;32.00;77.00;;;;;;8393938;28;20025;-80
2023/09/26 14:40:55;;;;;;;3.88;2.17;;;29.90;85.00;;;;;;8376277;28;20400;-80
2023/09/26 14:44:56;;;;;;;3.10;2.38;;;28.30;86.80;;;;;;8392316;28;20048;-80
2023/09/26 14:48:56;;;;;;;4.72;2.58;;;26.90;91.20;;;;;;8376331;28;20028;-80
2023/09/26 14:52:57;;;;;;;6.32;2.40;;;26.20;92.30;;;;;;8365415;28;20029;-79
2023/09/26 14:56:57;;;;;;;2.50;2.15;;;25.70;92.50;;;;;;8366831;28;20079;-80
2023/09/26 15:00:58;;;;;;;3.30;2.22;;;25.20;95.50;;;;;;8367456;28;20025;-80
2023/09/26 15:04:58;;;;;;;3.00;2.22;;;24.50;93.50;;;;;;8375728;28;20036;-80
2023/09/26 15:08:59;;;;;;;2.53;1.95;;;23.40;97.10;;;;;;8400074;28;20062;-80
2023/09/26 15:13:00;;;;;;;3.45;2.13;;;22.70;99.80;;;;;;8378628;28;20070;-80
2023/09/26 15:17:01;;;;;;;2.78;2.20;;;22.10;99.90;;;;;;8394200;28;20032;-79
2023/09/26 15:21:02;;;;;;;4.75;2.17;;;21.90;99.90;;;;;;8392378;28;20021;-80
2023/09/26 15:25:03;;;;;;;3.33;2.13;;;21.60;99.90;;;;;;8383637;28;20525;-81
2023/09/26 15:29:03;;;;;;;2.10;1.80;;;21.30;99.90;;;;;;8381546;28;20055;-79
2023/09/26 15:33:04;;;;;;;6.82;2.10;;;21.00;99.90;;;;;;8381103;28;20103;-79
2023/09/26 15:37:05;;;;;;;4.03;2.00;;;20.50;99.90;;;;;;8396188;28;20067;-79
2023/09/26 15:41:17;;;;;;;5.47;2.00;;;20.40;99.90;;;;;;8375525;28;20051;-80
2023/09/26 15:45:18;;;;;;;3.38;2.03;;;20.20;99.90;;;;;;8371442;28;20151;-80
2023/09/26 15:49:19;;;;;;;3.47;1.80;;;20.20;99.90;;;;;;8398688;28;20499;-78
2023/09/26 15:53:21;;;;;;;2.75;2.03;;;19.80;99.90;;;;;;8372228;28;20457;-79
2023/09/26 15:57:21;;;;;;;5.28;2.00;;;19.50;99.90;;;;;;8373858;28;20024;-79
2023/09/26 16:01:22;;;;;;;3.08;2.00;;;19.30;99.90;;;;;;8377252;28;20524;-79
2023/09/26 16:05:22;;;;;;;2.65;1.90;;;19.20;99.90;;;;;;8379563;28;20059;-80
2023/09/26 16:09:23;;;;;;;4.10;1.80;;;19.50;99.90;;;;;;8404702;28;20024;-79
2023/09/26 16:13:25;;;;;;;2.67;1.90;;;19.50;99.90;;;;;;8377560;28;20119;-78
2023/09/26 16:17:26;;;;;;;2.70;2.00;;;19.20;99.90;;;;;;8376756;28;20031;-79
2023/09/26 16:21:26;;;;;;;3.10;2.20;;;18.80;99.90;;;;;;8375875;28;20033;-79
2023/09/26 16:25:27;;;;;;;4.95;2.50;;;18.40;99.90;;;;;;8374062;28;20029;-79
2023/09/26 16:29:27;;;;;;;3.80;2.08;;;18.20;99.90;;;;;;8371223;28;20035;-79
2023/09/26 16:33:28;;;;;;;5.38;2.35;;;17.90;99.90;;;;;;8375131;28;20496;-84
2023/09/26 16:37:28;;;;;;;8.90;2.63;;;17.70;99.90;;;;;;8367941;28;21261;-82
2023/09/26 16:41:29;;;;;;;6.63;2.72;;;17.50;99.90;;;;;;8367699;28;20058;-84
2023/09/26 16:45:29;;;;;;;4.28;2.70;;;17.30;99.90;;;;;;8371096;28;20472;-84
2023/09/26 16:49:30;;;;;;;4.13;2.33;;;17.00;99.90;;;;;;8372604;28;20115;-85
2023/09/26 16:53:31;;;;;;;19.17;3.70;;;16.70;99.90;;;;;;8392435;28;20020;-85
2023/09/26 16:57:32;;;;;;;8.90;3.35;;;16.40;99.90;;;;;;8374658;28;20029;-85
2023/09/26 17:01:36;;;;;;;8.10;2.78;;;16.30;99.90;;;;;;8364860;28;20454;-80
2023/09/26 17:05:42;;;;;;;4.93;2.88;;;16.30;99.90;;;;;;8355740;28;20028;-79
2023/09/26 17:09:42;;;;;;;5.75;3.55;;;16.10;99.90;;;;;;8369114;28;20191;-80
2023/09/26 17:13:43;;;;;;;7.82;3.75;;;15.90;99.90;;;;;;8374389;28;20032;-79
2023/09/26 17:17:44;;;;;;;8.13;4.05;;;15.70;99.90;;;;;;8372366;28;20043;-81
2023/09/26 17:21:45;;;;;;;8.98;4.68;;;15.40;99.90;;;;;;8378305;28;20029;-79
2023/09/26 17:25:45;;;;;;;7.00;5.15;;;15.30;99.90;;;;;;8375542;28;20119;-79
2023/09/26 17:29:46;;;;;;;5.47;4.72;;;15.10;99.90;;;;;;8384743;28;20532;-80
2023/09/26 17:33:46;;;;;;;3.60;3.00;;;15.10;99.90;;;;;;8382098;28;20079;-80
2023/09/26 17:37:47;;;;;;;6.03;3.08;;;15.10;99.90;;;;;;8387784;28;20035;-80
2023/09/26 17:41:47;;;;;;;3.47;3.13;;;15.20;99.90;;;;;;8357570;28;20025;-82
2023/09/26 17:45:48;;;;;;;5.30;2.80;;;15.10;99.90;;;;;;8394667;28;20560;-82
2023/09/26 17:49:49;;;;;;;5.35;2.80;;;14.70;99.90;;;;;;8385305;28;20032;-81
2023/09/26 17:53:49;;;;;;;4.35;3.20;;;14.50;99.90;;;;;;8393914;28;20381;-80
2023/09/26 17:57:50;;;;;;;8.60;3.15;;;14.40;99.90;;;;;;8389394;28;20430;-80
2023/09/26 18:01:51;;;;;;;4.78;3.00;;;14.20;99.90;;;;;;8387090;28;20040;-80
2023/09/26 18:05:51;;;;;;;10.80;3.08;;;14.10;99.90;;;;;;8370800;28;20044;-79
2023/09/26 18:09:52;;;;;;;5.05;4.00;;;14.00;99.90;;;;;;8371842;28;20051;-80
2023/09/26 18:13:52;;;;;;;5.72;3.35;;;14.00;99.90;;;;;;8372269;28;20297;-80
2023/09/26 18:17:53;;;;;;;4.07;3.28;;;13.90;99.90;;;;;;8373137;28;20048;-78
2023/09/26 18:21:53;;;;;;;6.70;3.53;;;14.00;99.90;;;;;;8388847;28;20024;-81
2023/09/26 18:25:54;;;;;;;6.57;3.80;;;13.80;99.90;;;;;;8388293;28;20366;-80
2023/09/26 18:29:54;;;;;;;5.75;3.53;;;14.00;99.90;;;;;;8372891;28;20093;-79
2023/09/26 18:33:55;;;;;;;5.68;4.00;;;14.00;99.90;;;;;;8368449;28;20027;-77
2023/09/26 18:37:57;;;;;;;5.68;3.47;;;13.90;99.90;;;;;;8374605;28;20573;-80
2023/09/26 18:41:57;;;;;;;6.88;3.00;;;13.50;99.90;;;;;;8373157;28;20028;-80
2023/09/26 18:45:58;;;;;;;5.88;3.50;;;13.10;99.90;;;;;;8367942;28;20122;-79
2023/09/26 18:49:59;;;;;;;7.20;3.55;;;12.70;99.90;;;;;;8369011;28;20512;-80
2023/09/26 18:53:59;;;;;;;4.88;3.53;;;12.60;99.90;;;;;;8366998;28;20594;-79
2023/09/26 18:58:00;;;;;;;7.00;3.50;;;12.40;99.90;;;;;;8363347;28;20033;-79
2023/09/26 19:02:01;;;;;;;4.05;3.25;;;12.20;99.90;;;;;;8358118;28;20021;-79
2023/09/26 19:06:01;;;;;;;7.30;4.47;;;12.10;99.90;;;;;;8373537;28;20037;-79
2023/09/26 19:10:03;;;;;;;7.85;6.45;;;12.10;99.90;;;;;;8369071;28;20036;-79
2023/09/26 19:14:03;;;;;;;10.82;6.95;;;12.10;99.90;;;;;;8393891;28;20107;-79
2023/09/26 19:18:04;;;;;;;11.95;7.10;;;12.20;99.90;;;;;;8379435;28;20500;-79
2023/09/26 19:22:05;;;;;;;6.20;5.20;;;12.20;99.90;;;;;;8391723;28;20391;-79
2023/09/26 19:26:05;;;;;;;8.60;5.43;;;12.10;99.90;;;;;;8380957;28;20555;-78
2023/09/26 19:30:09;;;;;;;19.05;12.25;;;12.00;99.90;;;;;;8370652;28;20028;-80
2023/09/26 19:34:10;;;;;;;9.63;7.18;;;12.10;99.90;;;;;;8373119;28;20032;-79
2023/09/26 19:38:11;;;;;;;50.63;31.55;;;12.00;99.90;;;;;;8380261;28;20060;-80
2023/09/26 19:42:12;;;;;;;102.50;53.92;;;11.90;99.90;;;;;;8365113;28;20033;-79
2023/09/26 19:46:12;;;;;;;25.73;17.55;;;11.80;99.90;;;;;;8377845;28;20063;-79
2023/09/26 19:50:18;;;;;;;10.23;9.10;;;11.70;99.90;;;;;;8392410;28;20535;-80
2023/09/26 19:54:19;;;;;;;13.32;11.35;;;11.70;99.90;;;;;;8377917;28;20021;-78
2023/09/26 19:58:20;;;;;;;10.65;8.95;;;11.50;99.90;;;;;;8379974;28;20115;-79
2023/09/26 20:02:20;;;;;;;30.48;24.60;;;11.50;99.90;;;;;;8378795;28;20021;-78
2023/09/26 20:06:21;;;;;;;21.83;18.55;;;11.50;99.90;;;;;;8372691;28;20016;-79
2023/09/26 20:10:22;;;;;;;20.60;13.70;;;11.50;99.90;;;;;;8366037;28;20032;-78
2023/09/26 20:14:22;;;;;;;12.65;10.05;;;11.30;99.90;;;;;;8367865;28;20032;-78
2023/09/26 20:18:23;;;;;;;13.25;10.93;;;11.30;99.90;;;;;;8371990;28;20063;-80
2023/09/26 20:22:23;;;;;;;16.65;14.30;;;11.20;99.90;;;;;;8362045;28;20021;-80
2023/09/26 20:26:24;;;;;;;16.38;10.82;;;11.10;99.90;;;;;;8395640;28;20071;-79
2023/09/26 20:30:24;;;;;;;19.92;13.82;;;11.00;99.90;;;;;;8383470;28;20106;-80
2023/09/26 20:34:25;;;;;;;12.02;9.52;;;11.00;99.90;;;;;;8402047;28;20025;-79
2023/09/26 20:38:26;;;;;;;14.73;12.75;;;10.90;99.90;;;;;;8376818;28;20028;-80
2023/09/26 20:42:26;;;;;;;12.00;9.70;;;10.80;99.90;;;;;;8374798;28;20389;-79
2023/09/26 20:46:27;;;;;;;9.85;8.18;;;10.80;99.90;;;;;;8371604;28;20024;-79